Briefing drone pour Belleville

Rechercher une autre localisation

Conditions de vol :


Nous sommes le : Mercredi 28 juillet 2021
Il est 08:16 UTC (10:16 LT)

Lever de soleil : 03:38 UTC (05:38 LT)
Coucher de soleil : 19:45 UTC (21:45 LT)

Météo

L'essentiel des conditions de vol

VIGILANCE MÉTÉO FRANCE - Meurthe-et-Moselle (54)
Pas de vigilances particulieres
CARTES DES FRONTS
METAR de LFSN
LFSN 280800Z AUTO 21007KT 180V240 9999 BKN018/// OVC074/// ///TCU 19/15 Q1014

Date d'émission: 28/07/2021
Heure d'émission: 08:00 UTC
Vent: 210° (variable du 180° au 240°) pour 7 KT (13 km/h)
Visibilité horizontale: > 10 km
Plafond :
- Nuages morcelés à 1800ft (549m)
- Couvert à 7400ft (2256m)
Température: 19 °C
Point de rosée: 15 °C
Humidité: 78%
Pression (QNH): 1014 hPa
TAF de LFSN
LFSN 141600Z 1416/1512 CNL

Conditions prévues :

Heure d'émission : Bulletin éffectué le 14 à 16:00 UTC
Prévision : Valide du 14 a 16:00 UTC au 15 a 12:00 UTC
Nuages : à 0ft (0 m)
WEBCAM POUR BELLEVILLE

Réglementation

Voler en sécurité

CARTES AERONAUTIQUE 1/500.000
CARTES VAC (LFSN)
SUP AIP




Chargement des AIP...
NOTAM (BELLEVILLE + Terrain à proximité / FIR )




Chargement des NOTAMS...
CONTACT PREFECTURE 54


Avertissement : Les données mises à disposition sont indicatives. Oxygène Drone ne pourra être tenu responsable de dégâts causés aux biens et aux personnes.